createdAt,value
2023-04-09T00:02:04.650Z,1.00
2023-04-09T00:04:31.639Z,1.00
2023-04-09T00:06:58.540Z,1.00
2023-04-09T00:09:25.477Z,1.00
2023-04-09T00:11:52.431Z,1.00
2023-04-09T00:14:19.294Z,1.00
2023-04-09T00:16:46.258Z,1.00
2023-04-09T00:19:13.426Z,1.00
2023-04-09T00:21:40.388Z,1.00
2023-04-09T00:24:07.278Z,1.00
2023-04-09T00:26:34.474Z,1.00
2023-04-09T00:29:01.524Z,1.00
2023-04-09T00:31:28.472Z,1.00
2023-04-09T00:33:55.464Z,1.00
2023-04-09T00:36:22.772Z,1.00
2023-04-09T00:38:51.609Z,1.00
2023-04-09T00:41:18.710Z,1.00
2023-04-09T00:43:45.662Z,1.00
2023-04-09T00:46:12.695Z,1.00
2023-04-09T00:48:40.498Z,1.00
2023-04-09T00:51:08.348Z,1.00
2023-04-09T00:53:35.625Z,1.00
2023-04-09T00:56:03.557Z,1.00
2023-04-09T00:58:30.491Z,1.00
2023-04-09T01:00:57.412Z,1.00
2023-04-09T01:03:24.539Z,1.00
2023-04-09T01:06:10.767Z,1.00
2023-04-09T01:08:56.573Z,1.00
2023-04-09T01:11:59.239Z,1.00
2023-04-09T01:14:51.784Z,1.00
2023-04-09T01:17:33.780Z,1.00
2023-04-09T01:20:10.510Z,1.00
2023-04-09T01:23:16.463Z,1.00
2023-04-09T01:25:52.110Z,1.00
2023-04-09T01:28:39.456Z,1.00
2023-04-09T01:31:15.694Z,1.00
2023-04-09T01:33:43.117Z,1.00
2023-04-09T01:36:10.663Z,1.00
2023-04-09T01:38:41.343Z,1.00
2023-04-09T01:41:11.624Z,1.00
2023-04-09T01:43:39.061Z,1.00
2023-04-09T01:46:05.993Z,1.00
2023-04-09T01:48:34.204Z,1.00
2023-04-09T01:51:01.461Z,1.00
2023-04-09T01:53:28.566Z,1.00
2023-04-09T01:55:58.625Z,1.00
2023-04-09T01:58:26.230Z,1.00
2023-04-09T02:00:59.866Z,1.00
2023-04-09T02:03:49.133Z,1.00
2023-04-09T02:06:41.852Z,1.00
2023-04-09T02:09:10.065Z,1.00
2023-04-09T02:11:42.532Z,1.00
2023-04-09T02:14:11.967Z,1.00
2023-04-09T02:16:40.455Z,1.00
2023-04-09T02:19:07.339Z,1.00
2023-04-09T02:21:34.288Z,1.00
2023-04-09T02:24:01.162Z,1.00
2023-04-09T02:26:28.059Z,1.00
2023-04-09T02:28:55.062Z,1.00
2023-04-09T02:31:21.985Z,1.00
2023-04-09T02:33:48.862Z,1.00
2023-04-09T02:36:15.889Z,1.00
2023-04-09T02:38:42.968Z,1.00
2023-04-09T02:41:10.560Z,1.00
2023-04-09T02:43:37.648Z,1.00
2023-04-09T02:46:05.105Z,1.00
2023-04-09T02:48:31.976Z,1.00
2023-04-09T02:50:58.926Z,1.00
2023-04-09T02:53:26.007Z,1.00
2023-04-09T02:55:52.905Z,1.00
2023-04-09T02:58:19.818Z,1.00
2023-04-09T03:00:46.677Z,1.00
2023-04-09T03:03:14.055Z,1.00
2023-04-09T03:05:41.108Z,1.00
2023-04-09T03:08:07.976Z,1.00
2023-04-09T03:10:34.897Z,1.00
2023-04-09T03:13:01.772Z,1.00
2023-04-09T03:15:28.642Z,1.00
2023-04-09T03:17:55.642Z,1.00
2023-04-09T03:20:22.636Z,1.00
2023-04-09T03:22:49.720Z,1.00
2023-04-09T03:25:19.462Z,1.00
2023-04-09T03:27:46.572Z,1.00
2023-04-09T03:30:13.443Z,1.00
2023-04-09T03:32:40.354Z,1.00
2023-04-09T03:35:07.716Z,1.00
2023-04-09T03:37:34.578Z,1.00
2023-04-09T03:40:01.574Z,1.00
2023-04-09T03:42:28.919Z,1.00
2023-04-09T03:44:55.790Z,1.00
2023-04-09T03:47:22.742Z,1.00
2023-04-09T03:49:49.618Z,1.00
2023-04-09T03:52:16.462Z,1.00
2023-04-09T03:54:43.605Z,1.00
2023-04-09T03:57:10.608Z,1.00
2023-04-09T03:59:37.541Z,1.00
2023-04-09T04:02:04.452Z,3.80
2023-04-09T04:04:31.454Z,11.40
2023-04-09T04:06:58.538Z,17.30
2023-04-09T04:09:25.572Z,23.40
2023-04-09T04:11:52.955Z,32.10
2023-04-09T04:14:19.804Z,37.10
2023-04-09T04:16:46.874Z,44.60
2023-04-09T04:19:13.857Z,54.00
2023-04-09T04:21:40.890Z,67.20
2023-04-09T04:24:07.765Z,80.80
2023-04-09T04:26:34.681Z,91.50
2023-04-09T04:29:01.541Z,95.50
2023-04-09T04:31:28.460Z,99.60
2023-04-09T04:33:55.486Z,99.90
2023-04-09T04:36:22.341Z,99.90
2023-04-09T04:38:49.230Z,99.90
2023-04-09T04:41:16.155Z,99.90
2023-04-09T04:43:42.986Z,99.90
2023-04-09T04:46:09.887Z,99.90
2023-04-09T04:48:36.777Z,99.90
2023-04-09T04:51:03.804Z,99.90
2023-04-09T04:53:30.958Z,99.90
2023-04-09T04:55:57.857Z,99.90
2023-04-09T04:58:25.988Z,99.90
2023-04-09T05:00:53.034Z,99.90
2023-04-09T05:03:20.012Z,99.90
2023-04-09T05:05:47.053Z,99.90
2023-04-09T05:08:14.000Z,99.90
2023-04-09T05:10:42.934Z,99.90
2023-04-09T05:13:09.909Z,99.90
2023-04-09T05:15:41.382Z,99.90
2023-04-09T05:18:08.499Z,99.90
2023-04-09T05:20:35.724Z,99.90
2023-04-09T05:23:02.664Z,99.90
2023-04-09T05:25:29.549Z,99.90
2023-04-09T05:27:56.519Z,99.90
2023-04-09T05:30:23.472Z,99.90
2023-04-09T05:32:50.415Z,99.90
2023-04-09T05:35:17.489Z,99.90
2023-04-09T05:37:44.363Z,99.90
2023-04-09T05:40:11.999Z,99.90
2023-04-09T05:42:38.911Z,99.90
2023-04-09T05:45:06.369Z,99.90
2023-04-09T05:47:33.268Z,99.90
2023-04-09T05:50:00.234Z,99.90
2023-04-09T05:52:27.316Z,99.90
2023-04-09T05:54:54.178Z,99.90
2023-04-09T05:57:21.099Z,99.90
2023-04-09T05:59:48.599Z,99.90
2023-04-09T06:02:15.812Z,99.90
2023-04-09T06:04:42.833Z,99.90
2023-04-09T06:07:09.785Z,99.90
2023-04-09T06:09:36.617Z,99.90
2023-04-09T06:12:04.124Z,99.90
2023-04-09T06:14:33.252Z,99.90
2023-04-09T06:17:00.708Z,99.90
2023-04-09T06:19:27.738Z,99.90
2023-04-09T06:21:55.673Z,99.90
2023-04-09T06:24:22.817Z,99.90
2023-04-09T06:26:49.807Z,99.90
2023-04-09T06:29:16.730Z,99.90
2023-04-09T06:31:43.727Z,99.90
2023-04-09T06:34:11.217Z,99.90
2023-04-09T06:36:40.530Z,99.90
2023-04-09T06:39:07.584Z,99.90
2023-04-09T06:41:34.534Z,99.90
2023-04-09T06:44:01.769Z,99.90
2023-04-09T06:48:55.770Z,99.90
2023-04-09T06:51:22.750Z,99.90
2023-04-09T06:53:50.029Z,99.90
2023-04-09T06:56:17.114Z,99.90
2023-04-09T06:58:44.758Z,99.90
2023-04-09T07:01:12.770Z,99.90
2023-04-09T07:03:39.807Z,99.90
2023-04-09T07:06:06.855Z,99.90
2023-04-09T07:08:33.791Z,99.90
2023-04-09T07:11:00.646Z,99.90
2023-04-09T07:15:55.452Z,99.90
2023-04-09T07:18:22.337Z,99.90
2023-04-09T07:20:49.261Z,99.90
2023-04-09T07:23:16.561Z,99.90
2023-04-09T07:25:43.622Z,99.90
2023-04-09T07:28:11.586Z,99.90
2023-04-09T07:30:39.866Z,99.90
2023-04-09T07:33:06.789Z,99.90
2023-04-09T07:35:34.874Z,99.90
2023-04-09T07:38:02.003Z,99.90
2023-04-09T07:40:28.876Z,99.90
2023-04-09T07:42:56.078Z,99.90
2023-04-09T07:45:22.951Z,99.90
2023-04-09T07:47:49.932Z,99.90
2023-04-09T07:50:16.964Z,99.90
2023-04-09T07:52:43.818Z,99.90
2023-04-09T07:55:10.850Z,99.90
2023-04-09T07:57:38.702Z,99.90
2023-04-09T08:00:06.883Z,99.90
2023-04-09T08:02:33.837Z,99.90
2023-04-09T08:05:00.953Z,99.90
2023-04-09T08:07:27.873Z,99.90
2023-04-09T08:09:55.131Z,99.90
2023-04-09T08:12:22.048Z,99.90
2023-04-09T08:14:48.919Z,99.90
2023-04-09T08:17:16.605Z,99.90
2023-04-09T08:19:43.544Z,99.90
2023-04-09T08:22:10.489Z,99.90
2023-04-09T08:24:38.784Z,99.90
2023-04-09T08:27:05.876Z,99.90
2023-04-09T08:29:34.509Z,99.90
2023-04-09T08:32:01.382Z,99.90
2023-04-09T08:34:28.637Z,99.90
2023-04-09T08:36:55.870Z,99.90
2023-04-09T08:39:22.714Z,99.90
2023-04-09T08:41:52.511Z,99.90
2023-04-09T08:44:19.357Z,99.90
2023-04-09T08:46:46.341Z,99.90
2023-04-09T08:49:13.264Z,99.90
2023-04-09T08:51:46.179Z,99.90
2023-04-09T08:54:16.661Z,99.90
2023-04-09T08:56:44.205Z,99.90
2023-04-09T08:59:11.363Z,99.90
2023-04-09T09:01:38.333Z,99.90
2023-04-09T09:04:07.778Z,99.90
2023-04-09T09:06:36.895Z,99.90
2023-04-09T09:09:14.904Z,99.90
2023-04-09T09:11:46.335Z,99.90
2023-04-09T09:14:20.796Z,99.90
2023-04-09T09:16:56.726Z,99.90
2023-04-09T09:19:26.870Z,99.90
2023-04-09T09:22:00.626Z,99.90
2023-04-09T09:24:29.303Z,99.90
2023-04-09T09:26:57.485Z,99.90
2023-04-09T09:29:25.233Z,99.90
2023-04-09T09:31:54.341Z,99.90
2023-04-09T09:34:23.133Z,99.90
2023-04-09T09:36:50.196Z,99.90
2023-04-09T09:39:18.047Z,99.90
2023-04-09T09:41:47.383Z,99.90
2023-04-09T09:44:32.224Z,99.90
2023-04-09T09:46:59.653Z,99.90
2023-04-09T09:49:26.562Z,99.90
2023-04-09T09:51:56.981Z,99.90
2023-04-09T09:54:25.738Z,99.90
2023-04-09T09:56:55.886Z,99.90
2023-04-09T09:59:32.354Z,99.90
2023-04-09T10:02:05.098Z,99.90
2023-04-09T10:04:38.230Z,99.90
2023-04-09T10:07:07.149Z,99.90
2023-04-09T10:09:37.780Z,99.90
2023-04-09T10:12:07.632Z,99.90
2023-04-09T10:14:36.299Z,99.90
2023-04-09T10:17:04.424Z,99.90
2023-04-09T10:19:44.637Z,99.90
2023-04-09T10:22:15.507Z,99.90
2023-04-09T10:24:42.922Z,99.90
2023-04-09T10:27:12.528Z,99.90
2023-04-09T10:29:51.831Z,99.90
2023-04-09T10:32:25.212Z,99.90
2023-04-09T10:34:52.610Z,99.90
2023-04-09T10:37:24.464Z,99.90
2023-04-09T10:39:53.200Z,99.90
2023-04-09T10:42:29.346Z,99.90
2023-04-09T10:45:15.105Z,99.90
2023-04-09T10:47:43.374Z,99.90
2023-04-09T10:50:27.056Z,99.90
2023-04-09T10:52:56.609Z,99.90
2023-04-09T10:55:36.710Z,99.90
2023-04-09T10:58:11.333Z,99.90
2023-04-09T11:00:47.050Z,99.90
2023-04-09T11:03:30.449Z,99.90
2023-04-09T11:06:02.901Z,99.90
2023-04-09T11:08:33.858Z,99.90
2023-04-09T11:11:02.300Z,99.90
2023-04-09T11:13:31.652Z,99.90
2023-04-09T11:16:00.295Z,99.90
2023-04-09T11:18:29.038Z,99.90
2023-04-09T11:21:01.571Z,99.90
2023-04-09T11:23:29.069Z,99.90
2023-04-09T11:25:56.546Z,99.90
2023-04-09T11:28:24.529Z,99.90
2023-04-09T11:30:52.592Z,99.90
2023-04-09T11:33:20.574Z,99.90
2023-04-09T11:35:49.133Z,99.90
2023-04-09T11:38:16.704Z,99.90
2023-04-09T11:40:48.682Z,99.90
2023-04-09T11:43:17.220Z,99.90
2023-04-09T11:45:48.572Z,99.90
2023-04-09T11:48:22.013Z,99.90
2023-04-09T11:50:49.029Z,99.90
2023-04-09T11:53:17.540Z,96.60
2023-04-09T11:55:47.562Z,82.40
2023-04-09T11:58:15.047Z,55.10
2023-04-09T12:00:41.913Z,17.70
2023-04-09T12:03:12.172Z,1.00
2023-04-09T12:05:41.902Z,1.00
2023-04-09T12:08:10.912Z,1.00
2023-04-09T12:10:38.946Z,1.00
2023-04-09T12:13:10.949Z,1.00
2023-04-09T12:15:41.732Z,1.00
2023-04-09T12:18:10.001Z,1.00
2023-04-09T12:20:45.416Z,1.00
2023-04-09T12:23:13.498Z,1.00
2023-04-09T12:25:45.366Z,1.00
2023-04-09T12:28:18.912Z,1.00
2023-04-09T12:30:46.527Z,1.00
2023-04-09T12:33:13.450Z,1.00
2023-04-09T12:35:40.633Z,1.00
2023-04-09T12:38:07.588Z,13.50
2023-04-09T12:40:36.431Z,35.80
2023-04-09T12:43:03.437Z,46.90
2023-04-09T12:45:30.937Z,50.20
2023-04-09T12:47:58.599Z,71.50
2023-04-09T12:50:26.196Z,87.90
2023-04-09T12:52:53.335Z,92.00
2023-04-09T12:55:20.299Z,99.90
2023-04-09T12:57:49.980Z,99.90
2023-04-09T13:00:16.921Z,99.90
2023-04-09T13:02:43.980Z,99.90
2023-04-09T13:05:11.065Z,99.90
2023-04-09T13:07:37.970Z,99.90
2023-04-09T13:10:05.252Z,99.90
2023-04-09T13:12:32.325Z,99.90
2023-04-09T13:14:59.414Z,99.90
2023-04-09T13:17:26.600Z,99.90
2023-04-09T13:19:53.688Z,99.90
2023-04-09T13:22:20.829Z,99.90
2023-04-09T13:24:47.710Z,99.90
2023-04-09T13:27:14.930Z,99.90
2023-04-09T13:29:41.892Z,99.90
2023-04-09T13:32:10.858Z,99.90
2023-04-09T13:34:39.516Z,99.90
2023-04-09T13:37:06.785Z,99.90
2023-04-09T13:39:34.046Z,99.90
2023-04-09T13:42:07.407Z,99.90
2023-04-09T13:44:47.794Z,99.90
2023-04-09T13:47:16.376Z,99.90
2023-04-09T13:49:43.806Z,99.90
2023-04-09T13:52:10.883Z,91.30
2023-04-09T13:54:37.940Z,85.20
2023-04-09T13:57:04.793Z,88.70
2023-04-09T13:59:32.209Z,71.70
2023-04-09T14:01:59.310Z,58.50
2023-04-09T14:04:26.275Z,41.70
2023-04-09T14:06:53.233Z,20.10
2023-04-09T14:09:20.329Z,6.30
2023-04-09T14:11:47.422Z,1.00
2023-04-09T14:14:14.276Z,1.00
2023-04-09T14:16:41.366Z,1.00
2023-04-09T14:19:10.096Z,1.00
2023-04-09T14:21:37.084Z,1.00
2023-04-09T14:24:04.103Z,1.00
2023-04-09T14:26:30.996Z,1.00
2023-04-09T14:28:58.026Z,1.00
2023-04-09T14:31:24.946Z,1.00
2023-04-09T14:33:51.853Z,1.00
2023-04-09T14:36:19.290Z,1.00
2023-04-09T14:38:46.197Z,5.90
2023-04-09T14:41:13.145Z,9.50
2023-04-09T14:43:40.079Z,7.00
2023-04-09T14:46:12.172Z,2.60
2023-04-09T14:48:39.891Z,7.90
2023-04-09T14:51:09.036Z,13.80
2023-04-09T14:53:36.560Z,14.90
2023-04-09T14:56:03.893Z,16.50
2023-04-09T14:58:31.171Z,17.00
2023-04-09T15:00:58.159Z,16.10
2023-04-09T15:03:25.396Z,20.90
2023-04-09T15:05:52.526Z,22.70
2023-04-09T15:08:20.135Z,15.00
2023-04-09T15:10:46.982Z,3.20
2023-04-09T15:13:13.878Z,1.00
2023-04-09T15:15:41.716Z,1.00
2023-04-09T15:18:09.150Z,1.00
2023-04-09T15:20:42.415Z,1.00
2023-04-09T15:23:10.809Z,1.00
2023-04-09T15:25:37.864Z,1.00
2023-04-09T15:28:06.017Z,1.00
2023-04-09T15:30:33.215Z,1.00
2023-04-09T15:33:00.519Z,1.00
2023-04-09T15:35:29.461Z,1.00
2023-04-09T15:37:57.217Z,1.00
2023-04-09T15:40:24.166Z,1.00
2023-04-09T15:42:51.145Z,1.00
2023-04-09T15:45:18.200Z,1.00
2023-04-09T15:47:46.171Z,1.00
2023-04-09T15:50:14.671Z,1.00
2023-04-09T15:52:41.706Z,1.00
2023-04-09T15:55:09.242Z,1.00
2023-04-09T15:57:36.660Z,1.00
2023-04-09T16:00:03.701Z,1.00
2023-04-09T16:02:30.887Z,1.00
2023-04-09T16:04:57.884Z,1.00
2023-04-09T16:07:24.809Z,1.00
2023-04-09T16:09:51.771Z,1.00
2023-04-09T16:12:18.696Z,1.00
2023-04-09T16:14:45.791Z,1.00
2023-04-09T16:17:12.654Z,1.00
2023-04-09T16:19:39.551Z,1.80
2023-04-09T16:22:06.516Z,12.50
2023-04-09T16:24:33.488Z,16.90
2023-04-09T16:27:01.536Z,20.50
2023-04-09T16:29:28.582Z,30.00
2023-04-09T16:31:57.001Z,29.70
2023-04-09T16:34:23.991Z,33.40
2023-04-09T16:36:51.601Z,37.20
2023-04-09T16:39:21.489Z,37.10
2023-04-09T16:41:49.465Z,42.70
2023-04-09T16:44:16.413Z,52.70
2023-04-09T16:46:44.135Z,54.40
2023-04-09T16:49:11.303Z,61.70
2023-04-09T16:51:38.445Z,76.70
2023-04-09T16:54:05.613Z,92.00
2023-04-09T16:56:32.913Z,95.70
2023-04-09T16:59:00.085Z,98.30
2023-04-09T17:01:27.869Z,99.90
2023-04-09T17:03:56.078Z,99.90
2023-04-09T17:06:23.150Z,99.90
2023-04-09T17:08:49.997Z,99.90
2023-04-09T17:11:17.833Z,99.90
2023-04-09T17:13:45.020Z,99.90
2023-04-09T17:16:12.016Z,99.90
2023-04-09T17:18:39.131Z,99.90
2023-04-09T17:21:06.807Z,99.90
2023-04-09T17:23:33.855Z,99.90
2023-04-09T17:26:01.775Z,99.90
2023-04-09T17:28:28.750Z,99.90
2023-04-09T17:30:55.761Z,99.90
2023-04-09T17:33:22.711Z,99.90
2023-04-09T17:35:49.630Z,99.90
2023-04-09T17:38:21.252Z,99.90
2023-04-09T17:40:48.494Z,99.90
2023-04-09T17:43:15.714Z,99.90
2023-04-09T17:45:42.680Z,99.90
2023-04-09T17:48:09.638Z,99.90
2023-04-09T17:50:39.422Z,99.90
2023-04-09T17:53:06.332Z,99.90
2023-04-09T17:55:33.302Z,99.90
2023-04-09T17:58:00.387Z,99.90
2023-04-09T18:00:27.350Z,99.90
2023-04-09T18:02:54.495Z,99.90
2023-04-09T18:05:23.054Z,99.90
2023-04-09T18:07:51.776Z,99.90
2023-04-09T18:10:20.398Z,99.90
2023-04-09T18:12:47.229Z,99.90
2023-04-09T18:15:14.226Z,99.90
2023-04-09T18:17:41.154Z,99.90
2023-04-09T18:20:08.534Z,99.90
2023-04-09T18:22:35.443Z,99.90
2023-04-09T18:25:02.470Z,99.90
2023-04-09T18:27:29.355Z,99.90
2023-04-09T18:29:56.518Z,99.90
2023-04-09T18:32:23.774Z,99.90
2023-04-09T18:34:50.851Z,99.90
2023-04-09T18:37:17.883Z,99.90
2023-04-09T18:39:46.505Z,99.90
2023-04-09T18:42:13.669Z,99.90
2023-04-09T18:44:40.664Z,99.90
2023-04-09T18:47:09.420Z,99.90
2023-04-09T18:49:37.709Z,99.90
2023-04-09T18:52:09.297Z,99.90
2023-04-09T18:54:37.407Z,99.90
2023-04-09T18:57:04.884Z,99.90
2023-04-09T18:59:34.764Z,99.90
2023-04-09T19:02:05.884Z,99.90
2023-04-09T19:04:39.754Z,99.90
2023-04-09T19:07:07.634Z,99.90
2023-04-09T19:09:34.804Z,99.90
2023-04-09T19:12:02.015Z,99.90
2023-04-09T19:14:29.144Z,99.90
2023-04-09T19:16:57.127Z,99.90
2023-04-09T19:19:24.078Z,99.90
2023-04-09T19:21:51.327Z,99.90
2023-04-09T19:24:18.661Z,99.90
2023-04-09T19:26:45.549Z,99.90
2023-04-09T19:29:12.488Z,99.90
2023-04-09T19:31:39.555Z,99.90
2023-04-09T19:34:06.528Z,99.90
2023-04-09T19:36:34.135Z,99.90
2023-04-09T19:39:01.374Z,99.90
2023-04-09T19:41:28.378Z,99.90
2023-04-09T19:43:55.539Z,99.90
2023-04-09T19:46:22.440Z,99.90
2023-04-09T19:48:50.029Z,99.90
2023-04-09T19:51:20.380Z,99.90
2023-04-09T19:53:48.033Z,1.00
2023-04-09T19:56:15.752Z,1.00
2023-04-09T19:58:43.883Z,1.00
2023-04-09T20:01:11.108Z,1.00
2023-04-09T20:03:38.210Z,1.00
2023-04-09T20:06:10.280Z,1.00
2023-04-09T20:08:38.312Z,1.00
2023-04-09T20:11:05.501Z,1.00
2023-04-09T20:13:33.276Z,1.00
2023-04-09T20:16:00.733Z,1.00
2023-04-09T20:18:28.738Z,1.00
2023-04-09T20:20:55.701Z,1.00
2023-04-09T20:23:22.590Z,1.00
2023-04-09T20:25:54.450Z,1.00
2023-04-09T20:28:22.167Z,1.00
2023-04-09T20:30:49.422Z,1.00
2023-04-09T20:33:17.739Z,1.00
2023-04-09T20:35:45.231Z,1.00
2023-04-09T20:38:12.175Z,1.00
2023-04-09T20:40:39.100Z,1.00
2023-04-09T20:43:06.484Z,1.00
2023-04-09T20:45:33.890Z,1.00
2023-04-09T20:48:01.569Z,1.00
2023-04-09T20:50:28.994Z,1.00
2023-04-09T20:52:56.095Z,1.00
2023-04-09T20:55:23.581Z,1.00
2023-04-09T20:57:52.076Z,1.00
2023-04-09T21:00:19.072Z,1.00
2023-04-09T21:02:46.369Z,1.00
2023-04-09T21:05:22.813Z,1.00
2023-04-09T21:07:54.537Z,1.00
2023-04-09T21:10:21.645Z,1.00
2023-04-09T21:12:48.660Z,1.00
2023-04-09T21:15:16.179Z,1.00
2023-04-09T21:17:43.105Z,1.00
2023-04-09T21:20:10.857Z,1.00
2023-04-09T21:22:37.824Z,1.00
2023-04-09T21:25:05.354Z,1.00
2023-04-09T21:27:32.222Z,1.00
2023-04-09T21:29:59.773Z,1.00
2023-04-09T21:32:26.856Z,1.00
2023-04-09T21:34:54.074Z,1.00
2023-04-09T21:37:21.027Z,1.00
2023-04-09T21:39:48.952Z,1.00
2023-04-09T21:42:16.031Z,1.00
2023-04-09T21:44:42.988Z,1.00
2023-04-09T21:47:11.971Z,1.00
2023-04-09T21:49:40.578Z,1.00
2023-04-09T21:52:14.326Z,1.00
2023-04-09T21:54:42.287Z,1.00
2023-04-09T21:57:13.046Z,1.00
2023-04-09T21:59:41.328Z,1.00
2023-04-09T22:02:09.410Z,1.00
2023-04-09T22:04:37.226Z,1.00
2023-04-09T22:07:04.416Z,1.00
2023-04-09T22:09:31.873Z,1.00
2023-04-09T22:11:59.751Z,1.00
2023-04-09T22:14:29.616Z,1.00
2023-04-09T22:16:58.458Z,1.00
2023-04-09T22:19:26.280Z,1.00
2023-04-09T22:21:53.619Z,1.00
2023-04-09T22:24:27.004Z,1.00
2023-04-09T22:26:54.228Z,1.00
2023-04-09T22:29:21.133Z,1.00
2023-04-09T22:31:48.024Z,1.00
2023-04-09T22:34:21.502Z,1.00
2023-04-09T22:36:49.373Z,1.00
2023-04-09T22:39:16.421Z,1.00
2023-04-09T22:41:43.667Z,1.00
2023-04-09T22:44:11.105Z,1.00
2023-04-09T22:46:38.174Z,1.00
2023-04-09T22:49:06.257Z,1.00
2023-04-09T22:51:34.788Z,1.00
2023-04-09T22:54:02.561Z,1.00
2023-04-09T22:56:31.629Z,1.00
2023-04-09T22:58:58.775Z,1.00
2023-04-09T23:01:26.410Z,1.00
2023-04-09T23:03:53.437Z,1.00
2023-04-09T23:06:20.856Z,1.00
2023-04-09T23:08:47.873Z,1.00
2023-04-09T23:11:14.756Z,1.00
2023-04-09T23:13:41.788Z,1.00
2023-04-09T23:16:09.802Z,1.00
2023-04-09T23:18:37.188Z,1.00
2023-04-09T23:21:10.791Z,1.00
2023-04-09T23:23:38.958Z,1.00
2023-04-09T23:26:06.273Z,1.00
2023-04-09T23:28:33.255Z,1.00
2023-04-09T23:31:00.259Z,1.00
2023-04-09T23:33:27.585Z,1.00
2023-04-09T23:35:54.649Z,1.00
2023-04-09T23:38:21.716Z,1.00
2023-04-09T23:40:49.341Z,1.00
2023-04-09T23:43:16.664Z,1.00
2023-04-09T23:45:44.260Z,1.00
2023-04-09T23:48:11.998Z,1.00
2023-04-09T23:50:40.605Z,1.00
2023-04-09T23:53:08.006Z,1.00
2023-04-09T23:55:38.228Z,7.30
2023-04-09T23:58:05.731Z,31.50
